WetterOnline ( https://www.wetteronline.de )

Wetter aktuell Hammelburg

Aktuelles Wetter: Bad Kissingen (266m)

6-stündlich | Neueste Meldungen
Ortszeit Temperatur Wetter
So, 21.07. 20:00 25.7° C leicht bewölkt
So, 21.07. 14:00 24.8° C bewölkt
So, 21.07. 8:00 19.2° C fast wolkenlos
So, 21.07. 2:00 19.2° C wolkig
Sa, 20.07. 20:00 28.9° C wolkenlos
Sa, 20.07. 14:00 29.1° C leicht bewölkt
Sa, 20.07. 8:00 18.0° C fast wolkenlos
Sa, 20.07. 2:00 18.1° C wolkenlos
Ortszeit Temperatur Wetter
So, 21.07. 20:30 25.3° C wolkig
So, 21.07. 20:20 25.3° C wolkig
So, 21.07. 20:10 25.4° C leicht bewölkt
So, 21.07. 20:00 25.7° C leicht bewölkt
So, 21.07. 19:50 25.7° C leicht bewölkt
So, 21.07. 19:40 26.0° C bewölkt
So, 21.07. 19:30 26.3° C bedeckt
So, 21.07. 19:00 27.0° C bewölkt
So, 21.07. 18:30 27.6° C bedeckt
So, 21.07. 18:00 27.4° C wolkig
So, 21.07. 17:30 27.9° C wolkig
Ortszeit Relative Feuchte Sichtweite
So, 21.07. 20:00 65% 45 km
So, 21.07. 14:00 72% 40 km
So, 21.07. 8:00 82% 30 km
So, 21.07. 2:00 87% 30 km
Sa, 20.07. 20:00 45% 55 km
Sa, 20.07. 14:00 43% 65 km
Sa, 20.07. 8:00 80% 50 km
Sa, 20.07. 2:00 82% 45 km
Ortszeit Relative Feuchte Sichtweite
So, 21.07. 20:30 66% 60 km
So, 21.07. 20:20 66% -
So, 21.07. 20:10 64% -
So, 21.07. 20:00 65% 45 km
So, 21.07. 19:50 65% -
So, 21.07. 19:40 63% -
So, 21.07. 19:30 62% >70 km
So, 21.07. 19:00 58% 55 km
So, 21.07. 18:30 57% 50 km
So, 21.07. 18:00 56% 55 km
So, 21.07. 17:30 53% 60 km
Ortszeit Niederschlagsmenge Niederschlagsart
So, 21.07. 20:00 0.1 l/m2 in 12 Std. -
So, 21.07. 14:00 0.1 l/m2 in 6 Std. Regen
So, 21.07. 8:00 0.0 l/m2 in 12 Std. -
So, 21.07. 2:00 0.0 l/m2 in 6 Std. -
Sa, 20.07. 20:00 0.0 l/m2 in 12 Std. -
Sa, 20.07. 14:00 0.0 l/m2 in 6 Std. -
Sa, 20.07. 8:00 0.0 l/m2 in 12 Std. -
Sa, 20.07. 2:00 0.1 l/m2 in 6 Std. Regen
Ortszeit Niederschlagsmenge Niederschlagsart
So, 21.07. 20:30 0.0 l/m2 in 30 Min -
So, 21.07. 20:20 keine Meldung -
So, 21.07. 20:10 keine Meldung -
So, 21.07. 20:00 0.0 l/m2 in 1 Std. -
So, 21.07. 19:50 keine Meldung -
So, 21.07. 19:40 keine Meldung -
So, 21.07. 19:30 0.0 l/m2 in 30 Min -
So, 21.07. 19:00 0.0 l/m2 in 1 Std. -
So, 21.07. 18:30 0.0 l/m2 in 30 Min -
So, 21.07. 18:00 0.0 l/m2 in 1 Std. -
So, 21.07. 17:30 0.0 l/m2 in 30 Min -
Ortszeit Stärke Spitze Richtung
km/h Bft. km/h Grad Sektor
So, 21.07. 20:00 9 2 24 250° W
So, 21.07. 14:00 11 2 20 210° SW
So, 21.07. 8:00 4 1 11 340° N
So, 21.07. 2:00 7 2 29 10° N
Sa, 20.07. 20:00 4 1 22 20° N
Sa, 20.07. 14:00 9 2 19 230° SW
Sa, 20.07. 8:00 4 1 11 20° N
Sa, 20.07. 2:00 7 2 11 30° NO
Ortszeit Stärke Spitze Richtung
km/h Bft. km/h Grad Sektor
So, 21.07. 20:30 6 1 9 300° NW
So, 21.07. 20:20 6 1 - 300° NW
So, 21.07. 20:10 6 1 - 280° W
So, 21.07. 20:00 9 2 19 250° W
So, 21.07. 19:50 9 2 - 250° W
So, 21.07. 19:40 9 2 - 250° W
So, 21.07. 19:30 13 3 19 260° W
So, 21.07. 19:00 13 3 24 270° W
So, 21.07. 18:30 13 3 24 290° W
So, 21.07. 18:00 11 2 18 250° W
So, 21.07. 17:30 11 2 18 280° W
Ortszeit Untergrenze Bedeckung Gattung
total tief tief mittel hoch
So, 21.07. 20:00 3600 m 4/8 4/8 - - -
So, 21.07. 14:00 2700 m 8/8 6/8 - - -
So, 21.07. 8:00 7800 m 2/8 0/8 - - -
So, 21.07. 2:00 8700 m 7/8 0/8 - - -
Sa, 20.07. 20:00 - 0/8 0/8 - - -
Sa, 20.07. 14:00 1800 m 3/8 3/8 - - -
Sa, 20.07. 8:00 8700 m 2/8 0/8 - - -
Sa, 20.07. 2:00 - 0/8 0/8 - - -
Ortszeit Bedeckungsgrad in Achtel und Wolkenuntergrenze
So, 21.07. 20:30 6(3300m) 6(5100m) 6(10500m)
So, 21.07. 20:20 6(3300m) 6(5100m) 6(10500m)
So, 21.07. 20:10 4
So, 21.07. 20:00 4(3600m)
So, 21.07. 19:50 4(3600m)
So, 21.07. 19:40 7
So, 21.07. 19:30 7(3300m) 8(3900m) 8(4500m)
So, 21.07. 19:00 6(3300m) 7(3900m) 8(9000m)
So, 21.07. 18:30 8(3900m)
So, 21.07. 18:00 2(1380m) 8(4500m) 8(10500m)
So, 21.07. 17:30 3(1350m) 7(3600m) 8(4500m)
Ortszeit Luftdruck NN (hPa) Tendenz (hPa in 3 Std.)
So, 21.07. 20:00 1008 + 0,5
So, 21.07. 14:00 1008 0,0
So, 21.07. 8:00 1008 + 0,2
So, 21.07. 2:00 1009 0,0
Sa, 20.07. 20:00 1007 - 0,8
Sa, 20.07. 14:00 1010 - 1,1
Sa, 20.07. 8:00 1013 - 0,7
Sa, 20.07. 2:00 1015 - 1,0
Ortszeit Luftdruck NN (hPa) Tendenz (hPa in 3 Std.)
So, 21.07. 20:30 1008 + 0,5
So, 21.07. 20:20 1008 keine Meldung
So, 21.07. 20:10 1008 keine Meldung
So, 21.07. 20:00 1008 + 0,5
So, 21.07. 19:50 1008 keine Meldung
So, 21.07. 19:40 1008 keine Meldung
So, 21.07. 19:30 1008 + 0,6
So, 21.07. 19:00 1008 + 0,4
So, 21.07. 18:30 1007 0,0
So, 21.07. 18:00 1007 - 0,1
So, 21.07. 17:30 1007 0,0
Ortszeit Schneehöhe (cm)
So, 21.07. 20:00 0
So, 21.07. 14:00 0
So, 21.07. 8:00 0
So, 21.07. 2:00 0
Sa, 20.07. 20:00 0
Sa, 20.07. 14:00 0
Sa, 20.07. 8:00 0
Sa, 20.07. 2:00 0
Ortszeit Schneehöhe (cm)
So, 21.07. 20:30 0
So, 21.07. 20:20 0
So, 21.07. 20:10 -
So, 21.07. 20:00 0
So, 21.07. 19:50 0
So, 21.07. 19:40 -
So, 21.07. 19:30 0
So, 21.07. 19:00 0
So, 21.07. 18:30 0
So, 21.07. 18:00 0
So, 21.07. 17:30 0
Link zu dieser Seite / Seite empfehlen

Das Wetter in ...